KHOP

Campbell AAF (Fort Campbell) Airport

Fort Campbell/Hopkinsville, Kentucky, USA
METAR KHOP 141256Z AUTO 23003KT 10SM CLR 23/18 A3005 RMK AO2 SLP173 T02260183
Observed Flight Rules
Aug-14 @ 12:56 UTC (47 minutes ago) Visual Flight Rules
Wind Visibility Clouds
230° at 3 knots 10 miles
  • Clear skies
Temperatures Readings
Current 23°C / 73°F
Dewpoint 18°C / 64°F
Humidity 74%
Altimeter 30.05" Hg
Pressure 1017.3 hPa
Elevation 174
METAR KHOP 141256Z AUTO 23003KT 10SM CLR 23/18 A3005 RMK AO2 SLP173 T02260183
Observed Flight Rules
Aug-14 @ 12:56 UTC
(47 minutes ago)
VFR
Wind Visibility
230° at 3 knots 10 miles
Clouds
  • Clear skies
Temperature Dewpoint
23°C / 73°F 18°C / 64°F
Humidity Altimeter Pressure
74% 30.05" Hg 1017.3 hPa